Cowgill, Missouri
Current Conditions -  °F | °C
As of 5:15 AM on Monday 22 Dec 2014 (Local Time) from KGPH Reporting Station
Overcast Overcast  
Wind Chill: 41°   Ceiling: 1400
Heat Index: 41°   Visibility: 10mi
Dew Point: 37°   Wind: 3mph
Humidity: 87%   Direction: 130°SE
Pressure: 29.64"   Gusts: NA
Location:  39.56°N, 93.93°W
Report Text: KGPH 221115Z AUTO 13003KT 10SM OVC014 05/03 A2964 RMK AO2
Loading
Personal Weather Stations






























Interactive Weather Map New forecast layout! Learn more

10-Day Weather Forecast

Advertisements
Track Severe Weather on mobile